createdAt,value
2023-01-11T02:19:37.641Z,26.90
2023-01-11T02:22:26.611Z,15.30
2023-01-11T02:25:01.020Z,18.00
2023-01-11T02:27:57.202Z,11.60
2023-01-11T02:30:33.387Z,19.50
2023-01-11T02:33:14.969Z,22.40
2023-01-11T02:35:57.278Z,11.80
2023-01-11T02:38:44.752Z,16.30
2023-01-11T02:41:52.958Z,14.20
2023-01-11T02:45:01.549Z,27.00
2023-01-11T02:47:40.043Z,10.20
2023-01-11T02:50:42.728Z,21.10
2023-01-11T02:53:21.344Z,33.50
2023-01-11T02:55:51.917Z,23.70
2023-01-11T02:58:19.699Z,24.40
2023-01-11T03:00:46.640Z,14.00
2023-01-11T03:03:18.318Z,15.70
2023-01-11T03:05:47.118Z,20.50
2023-01-11T03:08:40.782Z,20.00
2023-01-11T03:11:14.579Z,17.30
2023-01-11T03:13:50.676Z,13.20
2023-01-11T03:16:39.415Z,15.00
2023-01-11T03:19:19.967Z,13.70
2023-01-11T03:21:57.367Z,9.50
2023-01-11T03:24:42.328Z,15.90
2023-01-11T03:27:29.507Z,12.20
2023-01-11T03:30:16.416Z,15.60
2023-01-11T03:32:51.414Z,8.90
2023-01-11T03:35:31.156Z,10.80
2023-01-11T03:38:01.471Z,13.00
2023-01-11T03:40:32.818Z,16.00
2023-01-11T03:43:14.102Z,21.30
2023-01-11T03:46:33.272Z,12.80
2023-01-11T03:49:00.142Z,13.30
2023-01-11T03:51:28.528Z,11.60
2023-01-11T03:54:00.413Z,14.50
2023-01-11T03:56:40.295Z,9.20
2023-01-11T03:59:07.182Z,13.90
2023-01-11T04:01:34.085Z,13.00
2023-01-11T04:04:00.993Z,16.40
2023-01-11T04:06:28.000Z,11.20
2023-01-11T04:08:54.874Z,20.00
2023-01-11T04:11:21.770Z,14.10
2023-01-11T04:13:48.687Z,13.10
2023-01-11T04:16:15.703Z,13.90
2023-01-11T04:18:42.724Z,12.20
2023-01-11T04:21:09.703Z,16.70
2023-01-11T04:23:36.627Z,13.50
2023-01-11T04:26:03.688Z,11.20
2023-01-11T04:28:30.545Z,10.80
2023-01-11T04:30:57.438Z,12.50
2023-01-11T04:33:24.304Z,14.70
2023-01-11T04:35:51.263Z,23.70
2023-01-11T04:38:18.988Z,11.70
2023-01-11T04:40:47.901Z,18.60
2023-01-11T04:43:14.767Z,15.10
2023-01-11T04:45:41.632Z,11.70
2023-01-11T04:48:08.544Z,13.60
2023-01-11T04:50:37.160Z,13.90
2023-01-11T04:53:04.555Z,15.00
2023-01-11T04:55:31.462Z,15.50
2023-01-11T04:57:58.433Z,12.20
2023-01-11T05:00:25.321Z,13.10
2023-01-11T05:02:52.173Z,11.40
2023-01-11T05:05:19.048Z,12.20
2023-01-11T05:07:46.016Z,10.40
2023-01-11T05:10:12.992Z,9.10
2023-01-11T05:12:41.276Z,14.20
2023-01-11T05:15:08.878Z,12.90
2023-01-11T05:17:35.827Z,12.60
2023-01-11T05:20:02.802Z,12.30
2023-01-11T05:22:29.735Z,10.80
2023-01-11T05:24:56.658Z,14.20
2023-01-11T05:27:24.290Z,14.50
2023-01-11T05:29:51.155Z,20.90
2023-01-11T05:32:18.014Z,17.80
2023-01-11T05:34:44.935Z,17.60
2023-01-11T05:37:11.835Z,20.80
2023-01-11T05:39:38.763Z,18.20
2023-01-11T05:42:05.690Z,23.70
2023-01-11T05:44:51.269Z,15.40
2023-01-11T05:47:18.142Z,14.50
2023-01-11T05:49:45.093Z,15.70
2023-01-11T05:52:12.021Z,40.90
2023-01-11T05:54:38.925Z,16.30
2023-01-11T05:57:10.651Z,16.30
2023-01-11T05:59:37.516Z,14.10
2023-01-11T06:02:04.528Z,21.90
2023-01-11T12:38:30.055Z,32.10
2023-01-11T12:41:00.185Z,25.10
2023-01-11T12:43:48.542Z,33.90
2023-01-11T12:46:43.645Z,38.90
2023-01-11T12:49:25.480Z,28.50
2023-01-11T12:52:11.907Z,24.00
2023-01-11T12:55:01.875Z,25.50
2023-01-11T12:57:37.323Z,35.40
2023-01-11T13:00:16.520Z,29.00
2023-01-11T13:02:55.745Z,33.90
2023-01-11T13:05:25.716Z,37.10
2023-01-11T13:08:15.685Z,31.80
2023-01-11T13:11:51.843Z,30.50
2023-01-11T13:14:34.180Z,32.20
2023-01-11T13:17:18.710Z,25.70
2023-01-11T13:20:03.615Z,27.10
2023-01-11T13:22:33.741Z,32.00
2023-01-11T13:25:01.967Z,37.70
2023-01-11T13:27:29.024Z,33.90
2023-01-11T13:29:56.099Z,25.20
2023-01-11T13:32:24.864Z,27.40
2023-01-11T13:35:25.172Z,26.20
2023-01-11T13:38:20.809Z,34.20
2023-01-11T13:40:49.977Z,30.00
2023-01-11T13:43:22.962Z,37.60
2023-01-11T13:45:55.779Z,28.10
2023-01-11T13:48:25.729Z,25.30
2023-01-11T13:51:19.935Z,22.40
2023-01-11T13:54:01.969Z,26.50
2023-01-11T13:56:36.678Z,24.60
2023-01-11T13:59:19.548Z,25.10
2023-01-11T14:01:59.302Z,30.90
2023-01-11T14:04:47.224Z,27.30
2023-01-11T14:07:20.614Z,25.50
2023-01-11T18:36:37.410Z,40.70
2023-01-11T18:39:10.388Z,46.20
2023-01-11T18:41:56.039Z,41.20
2023-01-11T18:44:22.909Z,38.10
2023-01-11T18:46:49.809Z,38.80
2023-01-11T18:49:16.811Z,38.80
2023-01-11T18:51:45.352Z,34.50
2023-01-11T18:54:15.548Z,54.10
2023-01-11T18:56:42.823Z,98.70
2023-01-11T18:59:09.756Z,50.00
2023-01-11T19:01:52.614Z,55.00
2023-01-11T19:04:23.329Z,56.80
2023-01-11T19:06:52.537Z,49.60
2023-01-11T19:09:19.471Z,39.00
2023-01-11T19:11:46.428Z,50.00
2023-01-11T19:14:13.390Z,41.60
2023-01-11T19:16:40.311Z,43.10
2023-01-11T19:19:07.290Z,40.90
2023-01-11T19:21:34.293Z,38.50
2023-01-11T19:24:01.227Z,35.20
2023-01-11T19:26:28.448Z,36.20
2023-01-11T19:31:57.966Z,31.60
2023-01-11T19:34:24.973Z,34.60
2023-01-11T19:36:51.964Z,33.80
2023-01-11T19:39:19.230Z,37.10
2023-01-11T19:41:55.326Z,41.50
2023-01-11T19:44:37.175Z,32.80
2023-01-11T19:47:11.547Z,29.60
2023-01-11T19:49:40.392Z,34.80
2023-01-11T19:52:13.554Z,28.90
2023-01-11T19:54:42.308Z,35.50
2023-01-11T19:57:14.434Z,26.50
2023-01-11T19:59:41.927Z,33.60
2023-01-11T20:02:11.051Z,37.10
2023-01-11T20:04:38.025Z,32.70
2023-01-11T20:07:05.615Z,39.30
2023-01-11T20:09:32.530Z,33.80
2023-01-11T20:11:59.738Z,28.50
2023-01-11T20:14:26.915Z,32.60
2023-01-11T20:16:54.093Z,26.10
2023-01-11T20:19:22.354Z,29.40
2023-01-11T20:21:49.292Z,35.40
2023-01-11T20:24:16.950Z,35.30
2023-01-11T20:26:46.612Z,29.30
2023-01-11T20:29:13.617Z,46.20
2023-01-11T20:31:40.662Z,42.20
2023-01-11T20:34:10.873Z,25.40
2023-01-11T20:36:37.812Z,23.30
2023-01-11T20:39:04.984Z,23.70
2023-01-11T20:41:47.322Z,27.30
2023-01-11T20:44:23.979Z,29.60
2023-01-11T20:46:51.717Z,29.40
2023-01-11T20:49:18.847Z,26.30
2023-01-11T20:51:46.181Z,28.30
2023-01-11T20:54:13.607Z,26.20
